Time;durP1;ratioP1;P1;durP2;ratioP2;P2;SDS_P1;SDS_P2;PMS_P1;PMS_P2;Temp;Humidity;BMP_temperature;BMP_pressure;BME280_temperature;BME280_humidity;BME280_pressure;Samples;Min_cycle;Max_cycle;Signal;HPM_P1;HPM_P2
2022/10/01 00:01:50;;;;;;;2.03;1.80;;;10.00;99.90;;;;;;4878307;29;20204;-86
2022/10/01 00:04:16;;;;;;;5.85;2.00;;;10.00;99.90;;;;;;4877917;29;20321;-86
2022/10/01 00:06:42;;;;;;;2.03;1.55;;;10.00;99.90;;;;;;4878158;29;20271;-87
2022/10/01 00:09:08;;;;;;;3.60;2.00;;;10.10;99.90;;;;;;4862932;29;20548;-86
2022/10/01 00:11:34;;;;;;;2.10;1.85;;;10.10;99.90;;;;;;4862890;29;20615;-88
2022/10/01 00:14:03;;;;;;;2.55;1.60;;;10.10;99.90;;;;;;4878147;29;20195;-87
2022/10/01 00:16:30;;;;;;;5.90;1.90;;;10.00;99.90;;;;;;4877862;29;20185;-85
2022/10/01 00:18:56;;;;;;;4.88;1.75;;;10.10;99.90;;;;;;4863614;29;20176;-86
2022/10/01 00:21:26;;;;;;;5.07;1.65;;;10.10;99.90;;;;;;4877815;29;20237;-86
2022/10/01 00:24:00;;;;;;;4.13;1.55;;;10.10;99.90;;;;;;4877410;29;20188;-86
2022/10/01 00:29:00;;;;;;;3.35;1.73;;;10.10;99.90;;;;;;4815455;29;20242;-86
2022/10/01 00:31:26;;;;;;;2.97;1.95;;;10.10;99.90;;;;;;4826171;29;20261;-86
2022/10/01 00:33:57;;;;;;;2.55;1.90;;;10.10;99.90;;;;;;4809932;29;20206;-87
2022/10/01 00:36:24;;;;;;;2.63;1.80;;;10.10;99.90;;;;;;4809785;29;20185;-86
2022/10/01 00:38:49;;;;;;;2.75;1.73;;;10.10;99.90;;;;;;4809587;29;20272;-86
2022/10/01 00:41:17;;;;;;;4.38;1.50;;;10.10;99.90;;;;;;4826212;29;20291;-86
2022/10/01 00:43:49;;;;;;;2.53;1.45;;;10.10;99.90;;;;;;4824721;29;20186;-86
2022/10/01 00:46:27;;;;;;;2.72;1.38;;;10.10;99.90;;;;;;4809585;29;20182;-85
2022/10/01 00:49:01;;;;;;;4.38;1.50;;;10.20;99.90;;;;;;4809532;29;20645;-85
2022/10/01 00:51:30;;;;;;;2.97;1.60;;;10.20;99.90;;;;;;4810000;29;20227;-86
2022/10/01 00:54:08;;;;;;;4.60;1.50;;;10.20;99.90;;;;;;4826333;29;20186;-88
2022/10/01 00:56:35;;;;;;;2.67;1.85;;;10.30;99.90;;;;;;4809918;29;20189;-87
2022/10/01 00:59:01;;;;;;;2.92;1.90;;;10.30;99.90;;;;;;4810003;29;20217;-88
2022/10/01 01:01:27;;;;;;;6.60;2.00;;;10.30;99.90;;;;;;4809930;29;20217;-87
2022/10/01 01:03:55;;;;;;;2.35;1.80;;;10.30;99.90;;;;;;4809883;29;20328;-86
2022/10/01 01:06:21;;;;;;;4.72;1.70;;;10.30;99.90;;;;;;4809732;29;20214;-87
2022/10/01 01:08:52;;;;;;;3.40;1.73;;;10.30;99.90;;;;;;4824917;29;20217;-87
2022/10/01 01:11:42;;;;;;;2.50;1.75;;;10.30;99.90;;;;;;4826218;29;20202;-87
2022/10/01 01:14:45;;;;;;;2.60;1.73;;;10.30;99.90;;;;;;4826299;29;20171;-86
2022/10/01 01:17:23;;;;;;;4.88;1.50;;;10.30;99.90;;;;;;4791006;29;20198;-87
2022/10/01 01:20:15;;;;;;;5.93;1.92;;;10.30;99.90;;;;;;4809579;29;20177;-87
2022/10/01 01:22:47;;;;;;;2.40;1.60;;;10.30;99.90;;;;;;4809401;29;20239;-87
2022/10/01 01:25:19;;;;;;;3.42;1.95;;;10.30;99.90;;;;;;4809645;29;20265;-86
2022/10/01 01:28:16;;;;;;;2.30;1.67;;;10.30;99.90;;;;;;4809573;29;20294;-86
2022/10/01 01:30:43;;;;;;;2.63;1.40;;;10.30;99.90;;;;;;4806013;29;20306;-87
2022/10/01 01:33:19;;;;;;;2.75;1.45;;;10.30;99.90;;;;;;4824699;29;20621;-87
2022/10/01 01:35:53;;;;;;;3.70;1.65;;;10.30;99.90;;;;;;4825853;29;20256;-86
2022/10/01 01:38:26;;;;;;;5.75;1.90;;;10.30;99.90;;;;;;4824795;29;20177;-86
2022/10/01 01:40:54;;;;;;;3.72;1.83;;;10.20;99.90;;;;;;4824647;29;20625;-86
2022/10/01 01:43:28;;;;;;;2.30;1.35;;;10.20;99.90;;;;;;4824724;29;20181;-88
2022/10/01 01:45:54;;;;;;;5.88;1.85;;;10.20;99.90;;;;;;4824789;29;20188;-87
2022/10/01 01:48:22;;;;;;;4.57;1.77;;;10.20;99.90;;;;;;4825945;29;20261;-86
2022/10/01 01:51:13;;;;;;;4.43;2.00;;;10.30;99.90;;;;;;4824611;29;20305;-87
2022/10/01 01:53:40;;;;;;;2.92;1.95;;;10.30;99.90;;;;;;4824339;29;20189;-86
2022/10/01 01:56:07;;;;;;;6.97;1.92;;;10.40;99.90;;;;;;4825871;29;20257;-87
2022/10/01 01:58:34;;;;;;;6.70;2.10;;;10.40;99.90;;;;;;4825782;29;20568;-87
2022/10/01 02:01:01;;;;;;;3.38;1.70;;;10.40;99.90;;;;;;4821707;29;20203;-86
2022/10/01 02:03:28;;;;;;;3.38;1.80;;;10.40;99.90;;;;;;4809422;29;20190;-87
2022/10/01 02:06:20;;;;;;;2.55;1.65;;;10.30;99.90;;;;;;4808573;29;20276;-87
2022/10/01 02:08:59;;;;;;;4.18;2.22;;;10.30;99.90;;;;;;4809096;29;20178;-87
2022/10/01 02:11:41;;;;;;;3.60;1.77;;;10.30;99.90;;;;;;4825356;29;20236;-87
2022/10/01 02:14:20;;;;;;;3.03;1.63;;;10.20;99.90;;;;;;4809250;29;20275;-87
2022/10/01 02:17:15;;;;;;;2.28;1.58;;;10.20;99.90;;;;;;4825753;29;20181;-87
2022/10/01 02:19:55;;;;;;;5.47;1.50;;;10.20;99.90;;;;;;4808462;29;20198;-87
2022/10/01 02:22:37;;;;;;;3.05;1.73;;;10.20;99.90;;;;;;4809176;29;20529;-88
2022/10/01 02:25:05;;;;;;;5.93;1.52;;;10.10;99.90;;;;;;4808965;29;20182;-87
2022/10/01 02:27:59;;;;;;;1.75;1.52;;;10.10;99.90;;;;;;4808972;29;20238;-87
2022/10/01 02:30:30;;;;;;;3.65;1.67;;;10.10;99.90;;;;;;4808903;29;20214;-86
2022/10/01 02:32:58;;;;;;;2.60;1.55;;;10.00;99.90;;;;;;4810788;29;20178;-86
2022/10/01 02:35:27;;;;;;;2.75;1.50;;;10.00;99.90;;;;;;4802763;29;20194;-88
2022/10/01 02:37:55;;;;;;;2.58;1.70;;;10.00;99.90;;;;;;4794244;29;20187;-86
2022/10/01 02:40:26;;;;;;;2.85;1.70;;;10.00;99.90;;;;;;4793781;29;20539;-86
2022/10/01 02:42:57;;;;;;;4.80;1.88;;;9.90;99.90;;;;;;4810206;29;20178;-86
2022/10/01 02:45:26;;;;;;;5.90;1.65;;;9.90;99.90;;;;;;4794246;29;20190;-86
2022/10/01 02:48:08;;;;;;;2.72;1.70;;;9.90;99.90;;;;;;4796522;29;20626;-88
2022/10/01 02:51:24;;;;;;;3.35;1.48;;;10.00;99.90;;;;;;4810791;29;20214;-87
2022/10/01 02:53:57;;;;;;;2.90;1.30;;;10.10;99.90;;;;;;4800460;29;20228;-86
2022/10/01 02:59:09;;;;;;;3.17;1.45;;;10.10;99.90;;;;;;4828752;29;20186;-87
2022/10/01 03:01:36;;;;;;;3.10;1.50;;;10.10;99.90;;;;;;4827092;29;20183;-87
2022/10/01 03:04:02;;;;;;;2.90;1.33;;;10.10;99.90;;;;;;4812148;29;20182;-88
2022/10/01 03:06:27;;;;;;;3.15;1.67;;;10.20;99.90;;;;;;4812189;29;20189;-88
2022/10/01 03:08:53;;;;;;;2.90;1.48;;;10.10;99.90;;;;;;4812164;29;20189;-87
2022/10/01 03:11:20;;;;;;;5.43;1.90;;;10.20;99.90;;;;;;4811237;29;20214;-87
2022/10/01 03:13:45;;;;;;;1.77;1.45;;;10.10;99.90;;;;;;4811779;29;20247;-86
2022/10/01 03:16:11;;;;;;;4.72;1.60;;;10.10;99.90;;;;;;4811326;29;20190;-88
2022/10/01 03:18:37;;;;;;;3.65;1.65;;;10.20;99.90;;;;;;4811303;29;20178;-87
2022/10/01 03:21:05;;;;;;;3.60;1.50;;;10.20;99.90;;;;;;4811654;29;20178;-87
2022/10/01 03:23:30;;;;;;;3.53;1.63;;;10.20;99.90;;;;;;4811909;29;20244;-87
2022/10/01 03:25:56;;;;;;;2.35;1.08;;;10.20;99.90;;;;;;4827991;29;20178;-87
2022/10/01 03:28:22;;;;;;;3.80;1.77;;;10.20;99.90;;;;;;4811618;29;20242;-87
2022/10/01 03:30:47;;;;;;;2.30;1.63;;;10.30;99.90;;;;;;4811803;29;20224;-89
2022/10/01 03:33:13;;;;;;;2.75;1.50;;;10.30;99.90;;;;;;4827724;29;20689;-88
2022/10/01 03:35:39;;;;;;;1.88;1.33;;;10.30;99.90;;;;;;4811909;29;20190;-89
2022/10/01 03:38:06;;;;;;;2.03;1.65;;;10.30;99.90;;;;;;4828132;29;20227;-92
2022/10/01 03:40:36;;;;;;;3.00;1.48;;;10.40;99.90;;;;;;4801486;29;20347;-88
2022/10/01 03:43:02;;;;;;;3.08;1.40;;;10.40;99.90;;;;;;4793432;29;20633;-89
2022/10/01 03:45:28;;;;;;;2.60;1.40;;;10.40;99.90;;;;;;4793612;29;20312;-88
2022/10/01 03:47:53;;;;;;;2.35;1.40;;;10.50;99.90;;;;;;4796524;29;20186;-89
2022/10/01 03:50:20;;;;;;;5.50;1.42;;;10.50;99.90;;;;;;4808529;29;20241;-92
2022/10/01 03:52:47;;;;;;;4.60;1.55;;;10.60;99.90;;;;;;4808569;29;20182;-87
2022/10/01 03:55:12;;;;;;;4.60;1.48;;;10.60;99.90;;;;;;4808436;29;20178;-87
2022/10/01 03:57:38;;;;;;;3.28;1.50;;;10.60;99.90;;;;;;4808253;29;20198;-87
2022/10/01 04:00:04;;;;;;;3.88;1.17;;;10.60;99.90;;;;;;4808229;29;20210;-86
2022/10/01 04:02:30;;;;;;;2.13;1.50;;;10.60;99.90;;;;;;4808255;29;20183;-88
2022/10/01 04:04:56;;;;;;;2.30;1.30;;;10.70;99.90;;;;;;4808282;29;20197;-87
2022/10/01 04:07:22;;;;;;;1.80;1.40;;;10.60;99.90;;;;;;4808195;29;20183;-88
2022/10/01 04:09:49;;;;;;;5.03;1.25;;;10.70;99.90;;;;;;4808251;29;20230;-92
2022/10/01 04:12:15;;;;;;;2.55;1.38;;;10.70;99.90;;;;;;4808256;29;20179;-89
2022/10/01 04:14:41;;;;;;;2.30;1.40;;;10.70;99.90;;;;;;4808190;29;20189;-90
2022/10/01 04:17:06;;;;;;;3.67;1.52;;;10.70;99.90;;;;;;4808060;29;20190;-91
2022/10/01 04:19:33;;;;;;;3.22;1.17;;;10.70;99.90;;;;;;4807420;29;20500;-87
2022/10/01 04:21:59;;;;;;;2.55;1.27;;;10.70;99.90;;;;;;4807901;29;20243;-89
2022/10/01 04:24:25;;;;;;;2.55;1.20;;;10.70;99.90;;;;;;4807918;29;20571;-86
2022/10/01 04:26:51;;;;;;;1.92;1.35;;;10.70;99.90;;;;;;4810305;29;20447;-88
2022/10/01 04:29:16;;;;;;;1.88;1.10;;;10.70;99.90;;;;;;4810962;29;20206;-89
2022/10/01 04:31:42;;;;;;;2.15;1.40;;;10.70;99.90;;;;;;4810923;29;20760;-88
2022/10/01 04:34:07;;;;;;;7.65;1.52;;;10.80;99.90;;;;;;4818935;29;20190;-87
2022/10/01 04:36:33;;;;;;;2.28;1.70;;;10.80;99.90;;;;;;4826005;29;20219;-89
2022/10/01 04:38:59;;;;;;;1.60;1.25;;;10.80;99.90;;;;;;4826127;29;20220;-92
2022/10/01 04:41:29;;;;;;;3.38;1.33;;;10.80;99.90;;;;;;4827177;29;20568;-88
2022/10/01 04:43:56;;;;;;;3.15;1.58;;;10.80;99.90;;;;;;4826063;29;20189;-89
2022/10/01 04:46:22;;;;;;;3.38;1.17;;;10.80;99.90;;;;;;4825959;29;20249;-89
2022/10/01 04:48:48;;;;;;;4.47;1.77;;;10.80;99.90;;;;;;4825611;29;20276;-89
2022/10/01 04:51:14;;;;;;;3.35;1.50;;;10.90;99.90;;;;;;4825670;29;20229;-88
2022/10/01 04:53:40;;;;;;;2.75;1.33;;;10.90;99.90;;;;;;4825776;29;20185;-88
2022/10/01 04:56:06;;;;;;;1.70;1.23;;;10.90;99.90;;;;;;4824941;29;20520;-89
2022/10/01 04:58:32;;;;;;;1.75;1.42;;;10.90;99.90;;;;;;4809312;29;20328;-88
2022/10/01 05:01:03;;;;;;;4.85;1.58;;;10.90;99.90;;;;;;4807281;29;20497;-91
2022/10/01 05:03:28;;;;;;;2.53;1.40;;;10.90;99.90;;;;;;4806894;29;20222;-88
2022/10/01 05:05:54;;;;;;;11.98;1.58;;;11.00;99.90;;;;;;4814130;29;20215;-88
2022/10/01 05:08:21;;;;;;;1.90;1.50;;;10.90;99.90;;;;;;4810399;29;20186;-88
2022/10/01 05:10:47;;;;;;;2.65;1.70;;;11.00;99.90;;;;;;4810240;29;20228;-88
2022/10/01 05:13:13;;;;;;;4.95;1.85;;;10.90;99.90;;;;;;4826789;29;20174;-88
2022/10/01 05:15:40;;;;;;;2.95;1.60;;;11.00;99.90;;;;;;4810107;29;20642;-86
2022/10/01 05:18:06;;;;;;;2.97;1.83;;;11.00;99.90;;;;;;4826490;29;20188;-87
2022/10/01 05:20:36;;;;;;;3.92;1.67;;;11.00;99.90;;;;;;4810128;29;20189;-90
2022/10/01 05:23:02;;;;;;;2.05;1.58;;;11.00;99.90;;;;;;4809700;29;20190;-90
2022/10/01 05:25:28;;;;;;;2.42;1.70;;;10.90;99.90;;;;;;4810258;29;20303;-88
2022/10/01 05:28:03;;;;;;;4.80;1.80;;;11.00;99.90;;;;;;4809903;29;20642;-87
2022/10/01 05:30:30;;;;;;;3.58;1.60;;;11.00;99.90;;;;;;4826582;29;20227;-88
2022/10/01 05:32:57;;;;;;;2.00;1.60;;;11.00;99.90;;;;;;4810194;29;20178;-92
2022/10/01 05:35:24;;;;;;;2.72;1.70;;;11.00;99.90;;;;;;4826334;29;20185;-89
2022/10/01 05:37:57;;;;;;;2.28;1.52;;;11.00;99.90;;;;;;4809750;29;20578;-87
2022/10/01 05:40:28;;;;;;;3.72;1.70;;;11.00;99.90;;;;;;4828944;29;20186;-93
2022/10/01 05:43:11;;;;;;;4.28;1.90;;;11.00;99.90;;;;;;4809820;29;20188;-90
2022/10/01 05:45:37;;;;;;;2.38;1.67;;;10.90;99.90;;;;;;4806491;29;20188;-93
2022/10/01 05:48:05;;;;;;;2.88;1.50;;;10.90;99.90;;;;;;4807132;29;20281;-91
2022/10/01 05:50:46;;;;;;;3.97;1.50;;;10.80;99.90;;;;;;4807159;29;20309;-89
2022/10/01 05:53:12;;;;;;;3.30;1.63;;;10.80;99.90;;;;;;4806562;29;20213;-91
2022/10/01 05:55:38;;;;;;;2.22;1.58;;;10.80;99.90;;;;;;4807093;29;20232;-92
2022/10/01 05:58:07;;;;;;;4.57;1.50;;;10.70;99.90;;;;;;4806744;29;20523;-89
2022/10/01 06:00:33;;;;;;;5.18;1.58;;;10.70;99.90;;;;;;4806087;29;20512;-91
2022/10/01 06:03:01;;;;;;;4.28;1.48;;;10.60;99.90;;;;;;4806419;29;20183;-95
2022/10/01 06:05:28;;;;;;;4.20;2.13;;;10.60;99.90;;;;;;4806758;29;20186;-93
2022/10/01 06:07:55;;;;;;;5.15;1.60;;;10.60;99.90;;;;;;4809538;29;20186;-91
2022/10/01 06:10:22;;;;;;;2.78;1.63;;;10.60;99.90;;;;;;4809641;29;20218;-89
2022/10/01 06:12:48;;;;;;;2.53;1.60;;;10.50;99.90;;;;;;4819300;29;20181;-87
2022/10/01 06:15:15;;;;;;;4.95;1.85;;;10.50;99.90;;;;;;4821464;29;20192;-91
2022/10/01 06:17:46;;;;;;;2.40;1.52;;;10.50;99.90;;;;;;4819061;29;20174;-93
2022/10/01 06:20:16;;;;;;;4.57;1.52;;;10.50;99.90;;;;;;4815268;29;20186;-93
2022/10/01 06:22:43;;;;;;;3.40;1.70;;;10.50;99.90;;;;;;4828507;29;20185;-88
2022/10/01 06:25:14;;;;;;;5.47;1.50;;;10.40;99.90;;;;;;4812775;29;20652;-95
2022/10/01 06:27:41;;;;;;;4.47;1.60;;;10.40;99.90;;;;;;4813389;29;20226;-90
2022/10/01 06:30:07;;;;;;;2.55;1.55;;;10.30;99.90;;;;;;4813693;29;20210;-89
2022/10/01 06:32:33;;;;;;;2.67;1.60;;;10.30;99.90;;;;;;4813878;29;20247;-89
2022/10/01 06:34:58;;;;;;;2.88;1.58;;;10.30;99.90;;;;;;4830183;29;20550;-90
2022/10/01 06:37:24;;;;;;;2.70;1.60;;;10.30;99.90;;;;;;4830468;29;20182;-90
2022/10/01 06:39:50;;;;;;;5.70;1.70;;;10.20;99.90;;;;;;4813790;29;20189;-90
2022/10/01 06:42:16;;;;;;;4.82;1.73;;;10.20;99.90;;;;;;4831058;29;20235;-92
2022/10/01 06:44:42;;;;;;;2.33;1.60;;;10.20;99.90;;;;;;4814719;29;20186;-90
2022/10/01 06:47:08;;;;;;;2.67;1.60;;;10.20;99.90;;;;;;4814247;29;20551;-90
2022/10/01 06:49:34;;;;;;;4.68;1.90;;;10.20;99.90;;;;;;4813701;29;20571;-84
2022/10/01 06:54:44;;;;;;;3.75;1.60;;;10.20;99.90;;;;;;4828595;29;20250;-86
2022/10/01 06:57:10;;;;;;;4.78;1.73;;;10.20;99.90;;;;;;4813569;29;20618;-86
2022/10/01 06:59:36;;;;;;;1.60;1.40;;;10.20;99.90;;;;;;4830495;29;20178;-86
2022/10/01 07:02:05;;;;;;;2.03;1.42;;;10.20;99.90;;;;;;4829666;29;20602;-86
2022/10/01 07:04:31;;;;;;;2.20;1.52;;;10.20;99.90;;;;;;4811826;29;20182;-87
2022/10/01 07:06:56;;;;;;;3.10;1.67;;;10.20;99.90;;;;;;4811562;29;20209;-87
2022/10/01 07:09:26;;;;;;;4.28;1.77;;;10.20;99.90;;;;;;4811056;29;20273;-87
2022/10/01 07:11:56;;;;;;;4.23;1.90;;;10.20;99.90;;;;;;4810583;29;20309;-87
2022/10/01 07:14:21;;;;;;;3.13;1.30;;;10.10;99.90;;;;;;4810833;29;20182;-85
2022/10/01 07:16:47;;;;;;;5.85;1.67;;;10.20;99.90;;;;;;4811032;29;20189;-87
2022/10/01 07:19:13;;;;;;;2.17;1.52;;;10.20;99.90;;;;;;4825790;29;20201;-86
2022/10/01 07:21:40;;;;;;;3.42;1.40;;;10.20;99.90;;;;;;4827066;29;20182;-88
2022/10/01 07:24:05;;;;;;;1.67;1.40;;;10.20;99.90;;;;;;4826538;29;20194;-87
2022/10/01 07:26:31;;;;;;;4.10;1.60;;;10.20;99.90;;;;;;4827193;29;20517;-86
2022/10/01 07:28:57;;;;;;;2.95;1.50;;;10.20;99.90;;;;;;4810918;29;20229;-86
2022/10/01 07:31:23;;;;;;;2.53;1.45;;;10.20;99.90;;;;;;4810865;29;20706;-87
2022/10/01 07:33:55;;;;;;;2.00;1.50;;;10.20;99.90;;;;;;4810959;29;20182;-85
2022/10/01 07:36:21;;;;;;;1.98;1.17;;;10.20;99.90;;;;;;4826005;29;20272;-88
2022/10/01 07:38:49;;;;;;;4.30;1.75;;;10.20;99.90;;;;;;4811023;29;20238;-87
2022/10/01 07:41:16;;;;;;;2.15;1.27;;;10.30;99.90;;;;;;4811011;29;20181;-85
2022/10/01 07:43:42;;;;;;;3.47;1.27;;;10.30;99.90;;;;;;4827143;29;20181;-88
2022/10/01 07:46:09;;;;;;;2.60;1.55;;;10.30;99.90;;;;;;4810811;29;20186;-87
2022/10/01 07:48:34;;;;;;;3.10;1.50;;;10.30;99.90;;;;;;4810473;29;20201;-83
2022/10/01 07:51:00;;;;;;;2.80;1.35;;;10.30;99.90;;;;;;4825701;29;20220;-85
2022/10/01 07:53:27;;;;;;;2.13;1.25;;;10.30;99.90;;;;;;4825875;29;20268;-87
2022/10/01 07:55:52;;;;;;;1.08;0.95;;;10.30;99.90;;;;;;4826599;29;20186;-85
2022/10/01 07:58:22;;;;;;;1.75;1.13;;;10.30;99.90;;;;;;4827109;29;20177;-91
2022/10/01 08:00:50;;;;;;;3.35;1.27;;;10.40;99.90;;;;;;4810966;29;20186;-85
2022/10/01 08:03:16;;;;;;;3.40;1.33;;;10.40;99.90;;;;;;4826825;29;20581;-91
2022/10/01 08:05:42;;;;;;;2.53;1.40;;;10.30;99.90;;;;;;4827291;29;20261;-85
2022/10/01 08:08:08;;;;;;;4.35;1.40;;;10.30;99.90;;;;;;4810806;29;20189;-88
2022/10/01 08:10:35;;;;;;;1.88;1.30;;;10.40;99.90;;;;;;4810068;29;20223;-89
2022/10/01 08:13:13;;;;;;;2.20;1.30;;;10.40;99.90;;;;;;4826486;29;20182;-88
2022/10/01 08:15:44;;;;;;;2.65;1.42;;;10.30;99.90;;;;;;4810494;29;20189;-87
2022/10/01 08:18:10;;;;;;;2.38;1.30;;;10.40;99.90;;;;;;4810158;29;20552;-87
2022/10/01 08:20:40;;;;;;;2.42;1.15;;;10.40;99.90;;;;;;4810216;29;20621;-86
2022/10/01 08:23:11;;;;;;;1.55;1.20;;;10.40;99.90;;;;;;4809992;29;20240;-85
2022/10/01 08:25:38;;;;;;;2.05;1.10;;;10.40;99.90;;;;;;4809958;29;20197;-88
2022/10/01 08:28:05;;;;;;;2.88;1.10;;;10.40;99.90;;;;;;4809841;29;20337;-85
2022/10/01 08:30:31;;;;;;;3.83;1.48;;;10.40;99.90;;;;;;4808997;29;20689;-86
2022/10/01 08:32:59;;;;;;;2.97;1.15;;;10.40;99.90;;;;;;4809766;29;20185;-85
2022/10/01 08:35:26;;;;;;;1.40;1.10;;;10.50;99.90;;;;;;4809842;29;20274;-87
2022/10/01 08:37:54;;;;;;;3.28;1.20;;;10.50;99.90;;;;;;4809906;29;20185;-86
2022/10/01 08:40:20;;;;;;;1.88;1.10;;;10.50;99.90;;;;;;4826082;29;20174;-86
2022/10/01 08:42:58;;;;;;;3.53;1.05;;;10.50;99.90;;;;;;4825982;29;20234;-86
2022/10/01 08:45:40;;;;;;;1.50;0.85;;;10.50;99.90;;;;;;4809848;29;20186;-88
2022/10/01 08:48:34;;;;;;;2.58;1.10;;;10.50;99.90;;;;;;4826131;29;20254;-87
2022/10/01 08:51:05;;;;;;;1.13;0.98;;;10.50;99.90;;;;;;4809856;29;20217;-88
2022/10/01 08:53:47;;;;;;;5.07;1.08;;;10.50;99.90;;;;;;4809772;29;20190;-86
2022/10/01 08:56:29;;;;;;;3.33;0.90;;;10.50;99.90;;;;;;4809642;29;20316;-85
2022/10/01 08:59:02;;;;;;;1.63;1.00;;;10.50;99.90;;;;;;4825935;29;20178;-87
2022/10/01 09:01:29;;;;;;;1.38;1.15;;;10.50;99.90;;;;;;4809440;29;20217;-86
2022/10/01 09:03:56;;;;;;;2.28;1.40;;;10.50;99.90;;;;;;4809011;29;20546;-86
2022/10/01 09:06:26;;;;;;;2.13;1.20;;;10.60;99.90;;;;;;4825937;29;20505;-87
2022/10/01 09:09:08;;;;;;;1.40;1.20;;;10.60;99.90;;;;;;4825875;29;20261;-86
2022/10/01 09:11:46;;;;;;;2.63;1.52;;;10.60;99.90;;;;;;4809791;29;20217;-88
2022/10/01 09:14:37;;;;;;;1.30;1.20;;;10.70;99.90;;;;;;4809364;29;20192;-87
2022/10/01 09:17:06;;;;;;;2.17;1.17;;;10.70;99.90;;;;;;4809563;29;20228;-86
2022/10/01 09:20:04;;;;;;;2.80;1.40;;;10.80;99.90;;;;;;4809338;29;20640;-89
2022/10/01 09:22:38;;;;;;;3.10;1.27;;;10.70;99.90;;;;;;4820645;29;20544;-87
2022/10/01 09:25:27;;;;;;;1.83;1.20;;;10.80;99.90;;;;;;4808982;29;20202;-86
2022/10/01 09:28:10;;;;;;;1.05;0.85;;;10.80;99.90;;;;;;4806228;29;20234;-87
2022/10/01 09:30:39;;;;;;;1.70;1.15;;;10.90;99.90;;;;;;4805974;29;20203;-86
2022/10/01 09:33:11;;;;;;;0.90;0.80;;;10.90;99.90;;;;;;4820941;29;20191;-87
2022/10/01 09:35:55;;;;;;;0.75;0.60;;;11.00;99.90;;;;;;4806027;29;20174;-88
2022/10/01 09:38:33;;;;;;;0.93;0.80;;;11.00;99.90;;;;;;4805928;29;20183;-86
2022/10/01 09:40:59;;;;;;;0.90;0.80;;;11.20;99.90;;;;;;4805535;29;20182;-91
2022/10/01 09:43:37;;;;;;;1.27;0.63;;;11.20;99.90;;;;;;4821437;29;20518;-88
2022/10/01 09:46:14;;;;;;;1.00;0.80;;;11.20;99.90;;;;;;4807128;29;20174;-86
2022/10/01 09:48:51;;;;;;;1.77;0.90;;;11.30;99.90;;;;;;4805033;29;20728;-89
2022/10/01 09:51:33;;;;;;;1.38;0.77;;;11.30;99.90;;;;;;4806060;29;20286;-90
2022/10/01 09:54:16;;;;;;;0.65;0.65;;;11.40;99.90;;;;;;4806025;29;20218;-88
2022/10/01 09:56:48;;;;;;;1.38;0.75;;;11.40;99.90;;;;;;4805934;29;20281;-87
2022/10/01 09:59:25;;;;;;;2.10;0.63;;;11.50;99.90;;;;;;4806025;29;20195;-88
2022/10/01 10:01:57;;;;;;;0.80;0.75;;;11.50;99.90;;;;;;4821024;29;20209;-88
2022/10/01 10:04:23;;;;;;;0.70;0.70;;;11.50;99.90;;;;;;4820359;29;20462;-88
2022/10/01 10:07:01;;;;;;;0.82;0.80;;;11.60;99.90;;;;;;4805047;29;20193;-91
2022/10/01 10:09:34;;;;;;;0.88;0.60;;;11.60;99.90;;;;;;4805873;29;20554;-90
2022/10/01 10:12:00;;;;;;;0.80;0.70;;;11.60;99.90;;;;;;4805696;29;20210;-86
2022/10/01 10:14:36;;;;;;;1.02;0.73;;;11.50;99.90;;;;;;4805801;29;20183;-86
2022/10/01 10:17:10;;;;;;;0.82;0.70;;;11.60;99.90;;;;;;4806268;29;20251;-83
2022/10/01 10:19:36;;;;;;;1.88;0.80;;;11.60;99.90;;;;;;4805580;29;20206;-86
2022/10/01 10:22:23;;;;;;;0.75;0.75;;;11.60;99.90;;;;;;4805499;29;20657;-86
2022/10/01 10:24:51;;;;;;;1.10;0.75;;;11.60;99.90;;;;;;4805202;29;20218;-87
2022/10/01 10:27:25;;;;;;;1.15;0.80;;;11.80;99.90;;;;;;4811623;29;20237;-87
2022/10/01 10:30:13;;;;;;;1.13;0.70;;;12.00;99.90;;;;;;4824798;29;20243;-89
2022/10/01 10:32:40;;;;;;;1.85;0.88;;;12.10;99.90;;;;;;4808912;29;20182;-88
2022/10/01 10:35:12;;;;;;;1.58;0.90;;;12.20;99.90;;;;;;4824493;29;20170;-91
2022/10/01 10:37:45;;;;;;;0.80;0.70;;;12.40;99.90;;;;;;4824785;29;20175;-86
2022/10/01 10:40:39;;;;;;;2.35;0.70;;;12.50;99.90;;;;;;4808060;29;20201;-88
2022/10/01 10:43:05;;;;;;;4.68;0.70;;;12.70;99.90;;;;;;4808234;29;20512;-92
2022/10/01 10:45:38;;;;;;;1.02;0.68;;;12.80;99.90;;;;;;4808605;29;20189;-86
2022/10/01 10:48:10;;;;;;;1.50;0.70;;;12.90;99.90;;;;;;4808014;29;20178;-86
2022/10/01 10:50:39;;;;;;;0.82;0.73;;;13.00;99.90;;;;;;4807651;29;20201;-87
2022/10/01 10:53:24;;;;;;;0.65;0.60;;;13.20;99.90;;;;;;4809443;29;20223;-90
2022/10/01 10:56:00;;;;;;;3.63;0.70;;;13.30;99.90;;;;;;4828001;29;20182;-93
2022/10/01 10:58:32;;;;;;;0.80;0.60;;;13.30;99.90;;;;;;4826989;29;20180;-89
2022/10/01 11:01:10;;;;;;;0.80;0.60;;;13.50;99.90;;;;;;4828686;29;20174;-92
2022/10/01 11:03:41;;;;;;;0.80;0.60;;;13.60;99.90;;;;;;4811619;29;20186;-94
2022/10/01 11:06:13;;;;;;;1.92;0.60;;;13.50;99.90;;;;;;4810959;29;20189;-89
2022/10/01 11:08:41;;;;;;;0.88;0.70;;;13.60;99.90;;;;;;4811777;29;20194;-88
2022/10/01 11:11:26;;;;;;;0.50;0.50;;;13.60;99.90;;;;;;4811891;29;20302;-94
2022/10/01 11:14:29;;;;;;;0.70;0.60;;;13.60;99.90;;;;;;4812636;29;20181;-94
2022/10/01 11:17:15;;;;;;;2.20;0.60;;;13.50;99.90;;;;;;4811126;29;20221;-90
2022/10/01 11:19:43;;;;;;;0.70;0.57;;;13.40;99.90;;;;;;4811812;29;20189;-88
2022/10/01 11:22:36;;;;;;;3.83;0.75;;;13.30;99.90;;;;;;4811592;29;20710;-91
2022/10/01 11:25:20;;;;;;;1.02;0.50;;;13.40;99.90;;;;;;4811533;29;20565;-88
2022/10/01 11:28:13;;;;;;;2.05;0.60;;;13.30;99.90;;;;;;4811893;29;20237;-90
2022/10/01 11:31:05;;;;;;;2.45;0.63;;;13.30;99.90;;;;;;4810872;29;20219;-87
2022/10/01 11:34:01;;;;;;;0.82;0.52;;;13.30;99.90;;;;;;4811316;29;20185;-90
2022/10/01 11:36:45;;;;;;;0.85;0.65;;;13.40;99.90;;;;;;4811577;29;20209;-92
2022/10/01 11:39:17;;;;;;;2.47;1.35;;;13.60;99.90;;;;;;4827968;29;20610;-89
2022/10/01 11:41:51;;;;;;;1.00;0.60;;;13.70;99.90;;;;;;4827340;29;20190;-89
2022/10/01 11:44:41;;;;;;;0.80;0.70;;;13.70;99.90;;;;;;4811405;29;20193;-88
2022/10/01 11:47:21;;;;;;;2.70;0.80;;;13.70;99.90;;;;;;4811006;29;20197;-87
2022/10/01 11:50:25;;;;;;;5.10;0.52;;;13.60;99.90;;;;;;4825972;29;20610;-89
2022/10/01 11:52:58;;;;;;;1.25;0.77;;;13.70;99.90;;;;;;4771337;30;20567;-94
2022/10/01 11:58:50;;;;;;;2.53;0.80;;;13.80;99.90;;;;;;4814803;29;20728;-88
2022/10/01 12:01:34;;;;;;;1.73;0.80;;;13.80;99.90;;;;;;4811233;29;20591;-90
2022/10/01 12:04:05;;;;;;;0.60;0.60;;;13.90;99.90;;;;;;4826814;29;20177;-90
2022/10/01 12:06:38;;;;;;;2.15;1.13;;;13.90;99.90;;;;;;4811189;29;20186;-92
2022/10/01 12:09:18;;;;;;;1.13;0.80;;;13.90;99.90;;;;;;4810873;29;20214;-88
2022/10/01 12:11:52;;;;;;;0.85;0.70;;;13.90;99.90;;;;;;4810638;29;20312;-87
2022/10/01 12:14:43;;;;;;;1.15;1.00;;;14.00;99.90;;;;;;4810636;29;20189;-88
2022/10/01 12:17:26;;;;;;;1.48;0.70;;;14.10;99.90;;;;;;4810307;29;20281;-87
2022/10/01 12:19:55;;;;;;;2.60;1.00;;;14.20;99.90;;;;;;4826769;29;20239;-89
2022/10/01 12:22:36;;;;;;;3.05;1.10;;;14.30;99.90;;;;;;4827001;29;20182;-90
2022/10/01 12:25:02;;;;;;;4.78;1.05;;;14.40;99.90;;;;;;4826672;29;20213;-86
2022/10/01 12:27:53;;;;;;;2.28;1.00;;;14.40;99.90;;;;;;4807451;29;20254;-88
2022/10/01 12:30:21;;;;;;;2.67;1.02;;;14.30;99.90;;;;;;4807070;29;20214;-87
2022/10/01 12:33:15;;;;;;;1.98;0.82;;;14.40;99.90;;;;;;4808329;29;20194;-88
2022/10/01 12:36:02;;;;;;;1.08;0.80;;;14.50;99.90;;;;;;4806991;29;20199;-86
2022/10/01 12:38:47;;;;;;;2.35;0.80;;;14.60;99.90;;;;;;4807245;29;20658;-88
2022/10/01 12:41:18;;;;;;;1.05;0.90;;;14.70;99.90;;;;;;4808582;29;20508;-92
2022/10/01 12:43:57;;;;;;;1.13;0.80;;;15.00;99.90;;;;;;4808481;29;20183;-90
2022/10/01 12:46:38;;;;;;;1.50;0.90;;;15.00;99.90;;;;;;4806963;29;20210;-88
2022/10/01 12:49:31;;;;;;;4.03;1.15;;;15.00;99.90;;;;;;4806485;29;20190;-90
2022/10/01 12:52:10;;;;;;;8.02;1.23;;;15.00;99.90;;;;;;4807086;29;20263;-87
2022/10/01 12:54:48;;;;;;;2.13;1.10;;;15.20;99.90;;;;;;4806864;29;20277;-91
2022/10/01 12:57:49;;;;;;;2.47;1.10;;;15.50;99.90;;;;;;4807483;29;20570;-89
2022/10/01 13:00:25;;;;;;;1.65;0.95;;;15.80;99.90;;;;;;4806867;29;20269;-94
2022/10/01 13:03:12;;;;;;;4.88;1.33;;;15.80;99.90;;;;;;4806612;29;20267;-88
2022/10/01 13:06:05;;;;;;;1.65;1.05;;;15.60;99.90;;;;;;4806490;29;20273;-87
2022/10/01 13:08:57;;;;;;;5.95;1.25;;;15.40;99.90;;;;;;4806806;29;20171;-87
2022/10/01 13:11:23;;;;;;;1.10;0.93;;;15.20;99.90;;;;;;4806487;29;20222;-89
2022/10/01 13:13:51;;;;;;;3.60;1.23;;;15.20;99.90;;;;;;4806776;29;20574;-88
2022/10/01 13:16:53;;;;;;;3.88;1.30;;;15.10;99.90;;;;;;4807258;29;20202;-90
2022/10/01 13:19:48;;;;;;;2.08;1.10;;;15.00;99.90;;;;;;4807517;29;20190;-90
2022/10/01 13:22:41;;;;;;;5.53;1.40;;;15.20;99.90;;;;;;4802237;29;20194;-89
2022/10/01 13:25:43;;;;;;;3.72;1.05;;;15.50;99.90;;;;;;4803107;29;20195;-91
2022/10/01 13:28:26;;;;;;;2.05;1.15;;;15.60;99.90;;;;;;4806830;29;20230;-89